« 撮初 富山空港 2020/1/5 sun | トップページ | 令和二年魚津消防署海上出初式 魚津市 2020/1/11 sat »

2020/01/08

定点 富山空港 2020/1/8 wed

春のような暖かい陽気ですが、爆弾低気圧接近で、防風警報も発令されています。

RJNT 080000Z 20006KT 160V230 8000 SHRA FEW010 SCT040 BKN060 12/11 Q1002

20200108_rjnt_00ja78an

ANA313 RJTT-RJNT JA78AN B737-881

RJNT 080031Z 12008G18KT 060V200 9999 -SHRA FEW003 SCT060 BKN150 12/11 Q0999 RMK 1ST003 3SC060 6AC150 A2950 P/FR

20200108_rjnt_01ja78an

前線が通過して、西から晴れ間も

20200108_rjnt_02ja78an

丁度日が差して・・

20200108_rjnt_03ja78an

ANA316 RJNT-RJTT JA78AN B737-881

20200108_rjnt_04ja78an

青空に向かってクライム

RJNT 080100Z VRB03KT 9999 FEW005 SCT080 14/11 Q0999

20200108_rjnt_05ja75an

バックは黒い雲

20200108_rjnt_06ja75an

ANA315 RJTT-RJNT JA75AN B737-881

RJNT 080250Z 28023G34KT 9999 SHRA FEW010 SCT020 BKN030 14/11 Q0998 RMK 1CU010 3CU020 5CU030 A2947

20200108_rjnt_07ja75an

晴れ間は束の間、ラインがかかり風雨が強くなりました。

20200108_rjnt_08ja75an

雨にもめげず、風にもめげず

20200108_rjnt_09ja75an

ANA1181 RJNT-RJCC JA75AN B737-881

中国南方さんは、2時間ぐらいのディレイ

|

« 撮初 富山空港 2020/1/5 sun | トップページ | 令和二年魚津消防署海上出初式 魚津市 2020/1/11 sat »

富山空港」カテゴリの記事

コメント

コメントを書く



(ウェブ上には掲載しません)


コメントは記事投稿者が公開するまで表示されません。



« 撮初 富山空港 2020/1/5 sun | トップページ | 令和二年魚津消防署海上出初式 魚津市 2020/1/11 sat »